Time;durP1;ratioP1;P1;durP2;ratioP2;P2;SDS_P1;SDS_P2;PMS_P1;PMS_P2;Temp;Humidity;BMP_temperature;BMP_pressure;BME280_temperature;BME280_humidity;BME280_pressure;Samples;Min_cycle;Max_cycle;Signal;HPM_P1;HPM_P2
2022/08/31 00:06:18;;;;;;;;;8.67;7.00;;;;;;;;6367644;22;45386;-93
2022/08/31 00:08:43;;;;;;;;;5.00;4.00;;;;;;;;6367411;22;45429;-93
2022/08/31 00:11:12;;;;;;;;;11.67;10.33;;;;;;;;6367747;22;45462;-93
2022/08/31 00:13:38;;;;;;;;;40.50;32.00;;;;;;;;6338434;22;47887;-93
2022/08/31 00:16:03;;;;;;;;;25.33;22.33;;;;;;;;6366693;22;45415;-92
2022/08/31 00:18:28;;;;;;;;;26.33;22.00;;;;;;;;6338197;22;45465;-93
2022/08/31 00:20:53;;;;;;;;;21.67;18.67;;;;;;;;6339315;22;45225;-93
2022/08/31 00:23:19;;;;;;;;;20.00;16.00;;;;;;;;6367376;22;46435;-94
2022/08/31 00:25:45;;;;;;;;;17.33;14.33;;;;;;;;6367266;22;45410;-92
2022/08/31 00:28:11;;;;;;;;;44.50;34.25;;;;;;;;6339017;22;45390;-93
2022/08/31 00:30:37;;;;;;;;;22.33;18.67;;;;;;;;6339195;22;45332;-92
2022/08/31 00:33:03;;;;;;;;;60.00;44.50;;;;;;;;6338027;22;47905;-94
2022/08/31 00:35:30;;;;;;;;;46.75;37.00;;;;;;;;6339049;22;45793;-92
2022/08/31 00:37:55;;;;;;;;;9.00;6.00;;;;;;;;6338651;22;45463;-94
2022/08/31 00:40:21;;;;;;;;;14.67;13.67;;;;;;;;6339340;22;45231;-94
2022/08/31 00:42:46;;;;;;;;;19.33;14.33;;;;;;;;6367630;22;46143;-94
2022/08/31 00:45:11;;;;;;;;;5.67;5.67;;;;;;;;6339014;22;45653;-94
2022/08/31 00:47:37;;;;;;;;;5.33;5.33;;;;;;;;6367055;22;45367;-93
2022/08/31 00:50:06;;;;;;;;;6.00;6.00;;;;;;;;6338913;22;45438;-93
2022/08/31 00:52:33;;;;;;;;;4.67;4.67;;;;;;;;6338626;22;46999;-93
2022/08/31 00:55:00;;;;;;;;;9.67;8.00;;;;;;;;6367777;22;45363;-91
2022/08/31 00:57:28;;;;;;;;;7.33;7.33;;;;;;;;6338740;22;45336;-92
2022/08/31 00:59:54;;;;;;;;;10.67;9.67;;;;;;;;6339004;22;45499;-93
2022/08/31 01:02:19;;;;;;;;;8.00;7.00;;;;;;;;6367100;22;45398;-94
2022/08/31 01:04:45;;;;;;;;;9.67;9.67;;;;;;;;6338508;22;45362;-93
2022/08/31 01:07:10;;;;;;;;;12.33;9.33;;;;;;;;6368083;22;45415;-93
2022/08/31 01:09:38;;;;;;;;;6.00;6.00;;;;;;;;6338668;22;45524;-94
2022/08/31 01:12:04;;;;;;;;;6.00;6.00;;;;;;;;6338776;22;47491;-93
2022/08/31 01:14:30;;;;;;;;;7.00;6.33;;;;;;;;6338282;22;45278;-93
2022/08/31 01:16:56;;;;;;;;;9.67;8.00;;;;;;;;6367554;22;45380;-93
2022/08/31 01:19:40;;;;;;;;;12.00;9.00;;;;;;;;6337357;22;45529;-93
2022/08/31 01:22:05;;;;;;;;;9.00;7.00;;;;;;;;6338592;22;48260;-93
2022/08/31 01:24:32;;;;;;;;;10.50;9.50;;;;;;;;6338418;22;45259;-92
2022/08/31 01:27:02;;;;;;;;;15.33;13.33;;;;;;;;6338398;22;45293;-94
2022/08/31 01:29:27;;;;;;;;;10.67;9.00;;;;;;;;6338164;22;45405;-93
2022/08/31 01:31:52;;;;;;;;;10.67;8.67;;;;;;;;6338798;22;47566;-93
2022/08/31 01:34:17;;;;;;;;;11.00;9.33;;;;;;;;6338283;22;45433;-94
2022/08/31 01:36:43;;;;;;;;;9.00;5.67;;;;;;;;6339422;22;45327;-93
2022/08/31 01:39:09;;;;;;;;;8.00;6.67;;;;;;;;6338699;22;45337;-93
2022/08/31 01:41:40;;;;;;;;;5.67;5.67;;;;;;;;6338674;22;48039;-93
2022/08/31 01:44:05;;;;;;;;;7.00;5.00;;;;;;;;6337953;22;46073;-94
2022/08/31 01:46:30;;;;;;;;;8.33;6.67;;;;;;;;6339130;22;45343;-93
2022/08/31 01:48:55;;;;;;;;;10.33;7.00;;;;;;;;6367117;22;45457;-94
2022/08/31 01:51:21;;;;;;;;;5.67;5.67;;;;;;;;6339071;22;46915;-94
2022/08/31 01:53:47;;;;;;;;;6.00;5.33;;;;;;;;6338056;22;45382;-93
2022/08/31 01:56:14;;;;;;;;;5.00;5.00;;;;;;;;6339041;22;45457;-94
2022/08/31 01:58:39;;;;;;;;;8.00;5.00;;;;;;;;6366184;22;45231;-92
2022/08/31 02:01:05;;;;;;;;;6.67;6.67;;;;;;;;6367247;22;46514;-92
2022/08/31 02:03:30;;;;;;;;;6.00;6.00;;;;;;;;6338197;22;45847;-93
2022/08/31 02:05:55;;;;;;;;;6.00;6.00;;;;;;;;6367544;22;45346;-93
2022/08/31 02:08:20;;;;;;;;;5.67;5.00;;;;;;;;6338037;22;45430;-93
2022/08/31 02:10:46;;;;;;;;;4.67;4.67;;;;;;;;6338359;22;46812;-93
2022/08/31 02:13:11;;;;;;;;;6.00;6.00;;;;;;;;6337460;22;45256;-93
2022/08/31 02:15:37;;;;;;;;;3.67;3.67;;;;;;;;6367414;22;45297;-93
2022/08/31 02:18:02;;;;;;;;;8.33;4.00;;;;;;;;6367082;22;45383;-93
2022/08/31 02:20:27;;;;;;;;;12.33;11.00;;;;;;;;6338103;22;47529;-93
2022/08/31 02:22:53;;;;;;;;;11.00;7.00;;;;;;;;6338209;22;45243;-93
2022/08/31 02:25:18;;;;;;;;;6.00;5.00;;;;;;;;6338871;22;45210;-93
2022/08/31 02:27:43;;;;;;;;;5.67;5.67;;;;;;;;6366710;22;45350;-93
2022/08/31 02:30:10;;;;;;;;;7.00;5.00;;;;;;;;6366442;22;46499;-93
2022/08/31 02:32:35;;;;;;;;;3.33;3.33;;;;;;;;6338319;22;45983;-92
2022/08/31 02:35:01;;;;;;;;;10.00;7.67;;;;;;;;6338052;22;45379;-92
2022/08/31 02:37:26;;;;;;;;;11.00;9.00;;;;;;;;6338044;22;45576;-92
2022/08/31 02:39:52;;;;;;;;;6.00;5.00;;;;;;;;6338234;22;48320;-92
2022/08/31 02:42:17;;;;;;;;;6.67;6.00;;;;;;;;6366380;22;45348;-93
2022/08/31 02:44:42;;;;;;;;;5.00;5.00;;;;;;;;6338184;22;45479;-92
2022/08/31 02:47:07;;;;;;;;;4.00;3.00;;;;;;;;6367235;22;45291;-93
2022/08/31 02:49:33;;;;;;;;;3.00;3.00;;;;;;;;6337604;22;47141;-91
2022/08/31 02:51:58;;;;;;;;;7.00;4.33;;;;;;;;6338579;22;45322;-91
2022/08/31 02:54:23;;;;;;;;;4.33;4.00;;;;;;;;6366631;22;45433;-92
2022/08/31 02:56:48;;;;;;;;;5.00;5.00;;;;;;;;6337474;22;45344;-92
2022/08/31 02:59:13;;;;;;;;;5.00;5.00;;;;;;;;6337070;22;47312;-92
2022/08/31 03:01:39;;;;;;;;;4.67;4.67;;;;;;;;6338602;22;45637;-93
2022/08/31 03:04:04;;;;;;;;;4.00;3.33;;;;;;;;6366462;22;45384;-92
2022/08/31 03:06:30;;;;;;;;;7.00;6.00;;;;;;;;6367380;22;45556;-92
2022/08/31 03:08:56;;;;;;;;;8.00;7.67;;;;;;;;6337486;22;47297;-93
2022/08/31 03:11:21;;;;;;;;;8.33;6.33;;;;;;;;6365909;22;45410;-92
2022/08/31 03:13:46;;;;;;;;;8.00;8.00;;;;;;;;6337875;22;45386;-93
2022/08/31 03:16:12;;;;;;;;;4.00;4.00;;;;;;;;6365822;22;45347;-93
2022/08/31 03:18:37;;;;;;;;;5.33;5.00;;;;;;;;6365460;22;45272;-92
2022/08/31 03:21:03;;;;;;;;;7.00;6.00;;;;;;;;6366253;22;45470;-93
2022/08/31 03:23:28;;;;;;;;;5.33;5.33;;;;;;;;6337751;22;45400;-93
2022/08/31 03:25:53;;;;;;;;;2.67;2.67;;;;;;;;6337640;22;45474;-93
2022/08/31 03:28:18;;;;;;;;;7.00;4.00;;;;;;;;6365932;22;46396;-92
2022/08/31 03:30:43;;;;;;;;;5.00;5.00;;;;;;;;6366300;22;45382;-93
2022/08/31 03:33:09;;;;;;;;;4.00;4.00;;;;;;;;6336990;22;45299;-92
2022/08/31 03:35:34;;;;;;;;;7.33;6.33;;;;;;;;6366467;22;45446;-92
2022/08/31 03:38:01;;;;;;;;;5.67;4.33;;;;;;;;6365813;22;45603;-92
2022/08/31 03:40:27;;;;;;;;;10.00;6.33;;;;;;;;6337313;22;45776;-92
2022/08/31 03:42:52;;;;;;;;;11.00;7.00;;;;;;;;6365875;22;45317;-92
2022/08/31 03:45:17;;;;;;;;;9.00;7.00;;;;;;;;6366759;22;45443;-92
2022/08/31 03:47:42;;;;;;;;;7.67;6.67;;;;;;;;6339577;22;47094;-92
2022/08/31 03:50:09;;;;;;;;;5.00;4.00;;;;;;;;6367647;22;45555;-93
2022/08/31 03:52:35;;;;;;;;;7.00;5.33;;;;;;;;6367984;22;45252;-93
2022/08/31 03:55:00;;;;;;;;;6.33;5.00;;;;;;;;6338756;22;45237;-92
2022/08/31 03:57:25;;;;;;;;;7.00;7.00;;;;;;;;6338692;22;47210;-93
2022/08/31 03:59:52;;;;;;;;;8.00;6.00;;;;;;;;6338790;22;45881;-92
2022/08/31 04:02:17;;;;;;;;;11.33;9.00;;;;;;;;6368031;22;45232;-92
2022/08/31 04:04:42;;;;;;;;;6.33;6.00;;;;;;;;6338331;22;45510;-94
2022/08/31 04:07:07;;;;;;;;;4.00;4.00;;;;;;;;6339111;22;48448;-93
2022/08/31 04:09:32;;;;;;;;;6.67;4.33;;;;;;;;6366615;22;45328;-93
2022/08/31 04:11:58;;;;;;;;;7.33;5.00;;;;;;;;6339363;22;45283;-93
2022/08/31 04:14:23;;;;;;;;;3.00;3.00;;;;;;;;6339085;22;45513;-94
2022/08/31 04:16:48;;;;;;;;;3.33;3.33;;;;;;;;6367808;22;46439;-93
2022/08/31 04:19:15;;;;;;;;;4.33;4.00;;;;;;;;6367307;22;45379;-93
2022/08/31 04:21:42;;;;;;;;;6.67;5.00;;;;;;;;6368289;22;45367;-93
2022/08/31 04:24:08;;;;;;;;;8.33;6.00;;;;;;;;6338346;22;45332;-92
2022/08/31 04:26:35;;;;;;;;;3.00;3.00;;;;;;;;6339184;22;46947;-93
2022/08/31 04:29:01;;;;;;;;;6.00;4.67;;;;;;;;6338841;22;45663;-93
2022/08/31 04:31:26;;;;;;;;;7.33;5.00;;;;;;;;6338974;22;45627;-93
2022/08/31 04:33:52;;;;;;;;;7.00;7.00;;;;;;;;6338438;22;45515;-92
2022/08/31 04:36:19;;;;;;;;;6.67;4.33;;;;;;;;6339610;22;47011;-93
2022/08/31 04:38:45;;;;;;;;;5.00;5.00;;;;;;;;6366682;22;45433;-94
2022/08/31 04:41:12;;;;;;;;;6.33;4.67;;;;;;;;6339488;22;45743;-92
2022/08/31 04:43:38;;;;;;;;;5.00;5.00;;;;;;;;6337936;22;45509;-93
2022/08/31 04:46:04;;;;;;;;;5.00;5.00;;;;;;;;6338703;22;48240;-93
2022/08/31 04:48:29;;;;;;;;;6.33;5.67;;;;;;;;6338467;22;46207;-93
2022/08/31 04:50:59;;;;;;;;;5.67;5.67;;;;;;;;6339247;22;45204;-93
2022/08/31 04:53:24;;;;;;;;;8.00;5.00;;;;;;;;6338646;22;45527;-93
2022/08/31 04:55:49;;;;;;;;;5.00;4.00;;;;;;;;6367133;22;45604;-92
2022/08/31 04:58:16;;;;;;;;;4.00;4.00;;;;;;;;6338144;22;45756;-93
2022/08/31 05:00:42;;;;;;;;;3.00;3.00;;;;;;;;6340144;22;45463;-93
2022/08/31 05:03:07;;;;;;;;;6.00;6.00;;;;;;;;6339321;22;45509;-93
2022/08/31 05:05:36;;;;;;;;;7.33;5.00;;;;;;;;6339074;22;47922;-92
2022/08/31 05:08:01;;;;;;;;;5.00;5.00;;;;;;;;6369947;22;45533;-93
2022/08/31 05:10:26;;;;;;;;;5.67;5.67;;;;;;;;6344457;22;45335;-94
2022/08/31 05:12:52;;;;;;;;;7.67;5.00;;;;;;;;6371979;22;45223;-93
2022/08/31 05:15:17;;;;;;;;;4.33;4.00;;;;;;;;6342361;22;47135;-92
2022/08/31 05:17:42;;;;;;;;;4.00;4.00;;;;;;;;6342843;22;45366;-93
2022/08/31 05:20:08;;;;;;;;;7.00;5.00;;;;;;;;6371345;22;45383;-93
2022/08/31 05:22:33;;;;;;;;;6.00;6.00;;;;;;;;6342223;22;45225;-93
2022/08/31 05:24:58;;;;;;;;;7.00;6.33;;;;;;;;6372698;22;45284;-92
2022/08/31 05:27:23;;;;;;;;;7.33;5.00;;;;;;;;6373994;22;45212;-91
2022/08/31 05:29:48;;;;;;;;;4.00;4.00;;;;;;;;6344742;22;45600;-91
2022/08/31 05:32:14;;;;;;;;;6.00;5.00;;;;;;;;6343228;22;45311;-90
2022/08/31 05:34:39;;;;;;;;;5.67;5.67;;;;;;;;6340795;22;46868;-90
2022/08/31 05:37:04;;;;;;;;;7.00;6.00;;;;;;;;6342796;22;45401;-90
2022/08/31 05:39:30;;;;;;;;;4.67;4.33;;;;;;;;6342765;22;45762;-91
2022/08/31 05:41:56;;;;;;;;;5.33;5.33;;;;;;;;6343389;22;45669;-90
2022/08/31 05:44:21;;;;;;;;;5.00;4.00;;;;;;;;6372117;22;45294;-91
2022/08/31 05:46:47;;;;;;;;;5.00;4.00;;;;;;;;6371738;22;45245;-91
2022/08/31 05:49:12;;;;;;;;;6.00;5.00;;;;;;;;6370691;22;45438;-90
2022/08/31 05:51:38;;;;;;;;;5.33;5.33;;;;;;;;6368768;22;45310;-90
2022/08/31 05:54:03;;;;;;;;;5.00;5.00;;;;;;;;6366856;22;46187;-91
2022/08/31 05:56:28;;;;;;;;;7.00;5.00;;;;;;;;6338426;22;45385;-92
2022/08/31 05:58:54;;;;;;;;;5.67;5.00;;;;;;;;6338542;22;45308;-94
2022/08/31 06:01:21;;;;;;;;;7.67;7.00;;;;;;;;6367583;22;45392;-93
2022/08/31 06:03:46;;;;;;;;;4.00;4.00;;;;;;;;6338011;22;47516;-91
2022/08/31 06:06:12;;;;;;;;;5.00;5.00;;;;;;;;6338596;22;45259;-93
2022/08/31 06:08:38;;;;;;;;;5.00;5.00;;;;;;;;6366485;22;45143;-90
2022/08/31 06:11:04;;;;;;;;;5.67;5.00;;;;;;;;6339087;22;45394;-90
2022/08/31 06:13:30;;;;;;;;;6.67;5.67;;;;;;;;6340446;22;47431;-94
2022/08/31 06:15:57;;;;;;;;;7.00;6.00;;;;;;;;6342476;22;45458;-93
2022/08/31 06:18:22;;;;;;;;;6.00;6.00;;;;;;;;6341667;22;45386;-91
2022/08/31 06:20:48;;;;;;;;;5.00;4.00;;;;;;;;6341044;22;45406;-92
2022/08/31 06:23:14;;;;;;;;;4.33;2.00;;;;;;;;6370893;22;45571;-91
2022/08/31 06:25:39;;;;;;;;;6.00;6.00;;;;;;;;6342055;22;45828;-89
2022/08/31 06:28:05;;;;;;;;;8.00;7.00;;;;;;;;6367782;22;45287;-86
2022/08/31 06:30:32;;;;;;;;;6.00;6.00;;;;;;;;6367582;22;45284;-87
2022/08/31 06:32:57;;;;;;;;;6.00;6.00;;;;;;;;6366103;22;45376;-88
2022/08/31 06:35:22;;;;;;;;;11.67;10.00;;;;;;;;6365974;22;45305;-86
2022/08/31 06:37:47;;;;;;;;;9.33;6.33;;;;;;;;6366295;22;45222;-89
2022/08/31 06:40:13;;;;;;;;;13.33;8.67;;;;;;;;6337826;22;45755;-87
2022/08/31 06:42:38;;;;;;;;;7.00;7.00;;;;;;;;6337323;22;46186;-87
2022/08/31 06:45:04;;;;;;;;;6.33;5.00;;;;;;;;6336645;22;45718;-88
2022/08/31 06:47:30;;;;;;;;;6.00;6.00;;;;;;;;6336545;22;45495;-88
2022/08/31 06:49:56;;;;;;;;;6.67;6.67;;;;;;;;6365304;22;45641;-87
2022/08/31 06:52:21;;;;;;;;;5.67;5.67;;;;;;;;6366623;22;45384;-87
2022/08/31 06:54:46;;;;;;;;;6.00;5.00;;;;;;;;6336868;22;45263;-87
2022/08/31 06:57:12;;;;;;;;;8.00;7.00;;;;;;;;6366392;22;45427;-87
2022/08/31 06:59:37;;;;;;;;;10.67;6.00;;;;;;;;6366017;22;45346;-88
2022/08/31 07:02:03;;;;;;;;;6.00;6.00;;;;;;;;6335090;22;46910;-87
2022/08/31 07:04:31;;;;;;;;;7.33;6.00;;;;;;;;6364845;22;45449;-87
2022/08/31 07:06:56;;;;;;;;;7.00;7.00;;;;;;;;6338069;22;45243;-88
2022/08/31 07:09:21;;;;;;;;;8.00;6.00;;;;;;;;6334398;22;45358;-92
2022/08/31 07:11:51;;;;;;;;;9.33;9.33;;;;;;;;6351344;22;48095;-95
2022/08/31 07:14:17;;;;;;;;;7.33;7.33;;;;;;;;6349089;22;45287;-91
2022/08/31 07:16:43;;;;;;;;;9.00;7.67;;;;;;;;6341589;22;45877;-94
2022/08/31 07:19:09;;;;;;;;;6.67;6.00;;;;;;;;6341183;22;45276;-83
2022/08/31 07:21:37;;;;;;;;;8.00;6.33;;;;;;;;6366316;22;45467;-85
2022/08/31 07:24:04;;;;;;;;;6.00;6.00;;;;;;;;6365284;22;45502;-87
2022/08/31 07:26:35;;;;;;;;;5.00;5.00;;;;;;;;6337858;22;45510;-85
2022/08/31 07:29:05;;;;;;;;;9.00;7.00;;;;;;;;6366135;22;45311;-85
2022/08/31 07:31:39;;;;;;;;;6.00;5.67;;;;;;;;6366561;22;45748;-85
2022/08/31 07:34:06;;;;;;;;;7.00;6.00;;;;;;;;6335559;22;45296;-85
2022/08/31 07:36:31;;;;;;;;;9.67;6.00;;;;;;;;6366624;22;45472;-85
2022/08/31 07:44:24;;;;;;;;;7.67;6.00;;;;;;;;6364779;22;45393;-86
2022/08/31 07:46:53;;;;;;;;;6.67;6.67;;;;;;;;6365154;22;45230;-86
2022/08/31 07:49:19;;;;;;;;;7.33;7.00;;;;;;;;6365883;22;45243;-85
2022/08/31 07:51:49;;;;;;;;;7.33;7.33;;;;;;;;6335890;22;46520;-86
2022/08/31 07:54:17;;;;;;;;;8.00;7.00;;;;;;;;6337341;22;45371;-86
2022/08/31 07:56:44;;;;;;;;;6.00;6.00;;;;;;;;6364766;22;45351;-86
2022/08/31 07:59:10;;;;;;;;;7.00;6.33;;;;;;;;6365545;22;45752;-86
2022/08/31 08:01:36;;;;;;;;;7.33;7.33;;;;;;;;6365287;22;46026;-86
2022/08/31 08:04:02;;;;;;;;;6.33;6.00;;;;;;;;6337153;22;45412;-84
2022/08/31 08:06:28;;;;;;;;;6.67;6.67;;;;;;;;6365893;22;45310;-83
2022/08/31 08:08:54;;;;;;;;;7.33;6.67;;;;;;;;6336600;22;45344;-83
2022/08/31 08:11:20;;;;;;;;;6.00;6.00;;;;;;;;6364849;22;46124;-83
2022/08/31 08:13:46;;;;;;;;;6.00;6.00;;;;;;;;6364667;22;45506;-83
2022/08/31 08:16:11;;;;;;;;;7.33;6.00;;;;;;;;6333415;22;45700;-83
2022/08/31 08:18:36;;;;;;;;;8.00;6.00;;;;;;;;6332771;22;45749;-83
2022/08/31 08:21:02;;;;;;;;;7.67;7.00;;;;;;;;6335484;22;48409;-83
2022/08/31 08:23:27;;;;;;;;;6.00;6.00;;;;;;;;6336115;22;45738;-83
2022/08/31 08:25:52;;;;;;;;;5.00;5.00;;;;;;;;6364688;22;45489;-83
2022/08/31 08:28:19;;;;;;;;;5.67;5.67;;;;;;;;6336259;22;45294;-83
2022/08/31 08:30:45;;;;;;;;;6.33;6.33;;;;;;;;6333429;22;47128;-83
2022/08/31 08:33:10;;;;;;;;;6.33;6.33;;;;;;;;6333841;22;45352;-82
2022/08/31 08:35:36;;;;;;;;;7.67;7.00;;;;;;;;6361778;22;45391;-83
2022/08/31 08:38:01;;;;;;;;;6.67;6.67;;;;;;;;6363476;22;45272;-84
2022/08/31 08:40:30;;;;;;;;;9.00;8.00;;;;;;;;6337086;22;47719;-84
2022/08/31 08:42:55;;;;;;;;;9.00;6.33;;;;;;;;6335511;22;45316;-84
2022/08/31 08:45:21;;;;;;;;;7.00;6.00;;;;;;;;6331722;22;45856;-83
2022/08/31 08:47:48;;;;;;;;;6.67;6.67;;;;;;;;6364729;22;45393;-83
2022/08/31 08:50:14;;;;;;;;;7.00;5.67;;;;;;;;6335989;22;46474;-83
2022/08/31 08:52:41;;;;;;;;;8.00;6.00;;;;;;;;6364476;22;45397;-83
2022/08/31 08:55:09;;;;;;;;;8.00;7.67;;;;;;;;6336711;22;45276;-84
2022/08/31 08:57:35;;;;;;;;;8.67;7.00;;;;;;;;6335838;22;45296;-83
2022/08/31 09:00:06;;;;;;;;;8.00;7.00;;;;;;;;6335444;22;46268;-83
2022/08/31 09:02:32;;;;;;;;;9.00;9.00;;;;;;;;6365420;22;45245;-83
2022/08/31 09:05:04;;;;;;;;;7.25;6.25;;;;;;;;6364615;22;45343;-83
2022/08/31 09:07:30;;;;;;;;;9.00;7.67;;;;;;;;6335897;22;45457;-84
2022/08/31 09:10:13;;;;;;;;;8.33;8.33;;;;;;;;6334735;22;46399;-83
2022/08/31 09:12:43;;;;;;;;;8.00;6.00;;;;;;;;6336358;22;45395;-83
2022/08/31 09:15:31;;;;;;;;;6.33;6.33;;;;;;;;6335975;22;45537;-83
2022/08/31 09:18:12;;;;;;;;;9.33;7.00;;;;;;;;6336132;22;45624;-84
2022/08/31 09:20:40;;;;;;;;;7.33;7.00;;;;;;;;6335041;22;48120;-83
2022/08/31 09:23:06;;;;;;;;;7.00;6.33;;;;;;;;6364672;22;45374;-84
2022/08/31 09:25:51;;;;;;;;;7.67;7.00;;;;;;;;6335982;22;45431;-84
2022/08/31 09:28:17;;;;;;;;;7.00;7.00;;;;;;;;6336206;22;45659;-85
2022/08/31 09:30:42;;;;;;;;;10.00;6.33;;;;;;;;6334815;22;47397;-84
2022/08/31 09:33:17;;;;;;;;;7.33;6.33;;;;;;;;6336506;22;45924;-85
2022/08/31 09:35:43;;;;;;;;;6.00;6.00;;;;;;;;6364137;22;45315;-84
2022/08/31 09:38:09;;;;;;;;;5.00;5.00;;;;;;;;6364408;22;45316;-84
2022/08/31 09:40:38;;;;;;;;;10.00;9.00;;;;;;;;6335960;22;46415;-84
2022/08/31 09:43:25;;;;;;;;;8.33;6.67;;;;;;;;6335508;22;45759;-84
2022/08/31 09:45:53;;;;;;;;;4.67;4.67;;;;;;;;6336672;22;45364;-84
2022/08/31 09:48:38;;;;;;;;;10.00;8.00;;;;;;;;6365177;22;45300;-84
2022/08/31 09:51:04;;;;;;;;;7.67;7.67;;;;;;;;6335753;22;47301;-84
2022/08/31 09:56:22;;;;;;;;;6.00;6.00;;;;;;;;6364011;22;45519;-84
2022/08/31 09:58:47;;;;;;;;;7.67;6.00;;;;;;;;6335796;22;45724;-84
2022/08/31 10:01:33;;;;;;;;;6.67;6.67;;;;;;;;6365620;22;45831;-85
2022/08/31 10:04:08;;;;;;;;;7.00;6.00;;;;;;;;6336409;22;45328;-84
2022/08/31 10:06:44;;;;;;;;;5.67;5.67;;;;;;;;6337045;22;45457;-84
2022/08/31 10:09:22;;;;;;;;;7.33;7.33;;;;;;;;6336743;22;45324;-84
2022/08/31 10:11:50;;;;;;;;;8.33;6.00;;;;;;;;6335916;22;45977;-85
2022/08/31 10:14:27;;;;;;;;;6.00;6.00;;;;;;;;6364797;22;45387;-84
2022/08/31 10:17:01;;;;;;;;;7.00;7.00;;;;;;;;6336790;22;45236;-83
2022/08/31 10:19:41;;;;;;;;;10.33;6.67;;;;;;;;6337883;22;45358;-82
2022/08/31 10:22:10;;;;;;;;;5.33;5.33;;;;;;;;6365871;22;46181;-83
2022/08/31 10:25:03;;;;;;;;;6.67;6.67;;;;;;;;6336100;22;45362;-83
2022/08/31 10:27:37;;;;;;;;;6.00;6.00;;;;;;;;6336059;22;45677;-86
2022/08/31 10:30:04;;;;;;;;;7.33;7.00;;;;;;;;6336431;22;45490;-86
2022/08/31 10:33:03;;;;;;;;;6.00;6.00;;;;;;;;6336603;22;48075;-85
2022/08/31 10:35:47;;;;;;;;;6.33;5.67;;;;;;;;6236044;22;45348;-87
2022/08/31 10:38:20;;;;;;;;;6.00;5.00;;;;;;;;6236250;22;45529;-87
2022/08/31 10:41:05;;;;;;;;;6.33;6.00;;;;;;;;6235578;22;45738;-87
2022/08/31 10:43:33;;;;;;;;;10.33;6.33;;;;;;;;6219534;22;45513;-87
2022/08/31 10:45:58;;;;;;;;;6.33;5.33;;;;;;;;6211196;22;45791;-86
2022/08/31 10:48:25;;;;;;;;;5.33;5.00;;;;;;;;6209912;22;45317;-83
2022/08/31 10:50:56;;;;;;;;;11.00;10.00;;;;;;;;6210316;22;45847;-85
2022/08/31 10:53:33;;;;;;;;;8.00;5.33;;;;;;;;6209455;22;48401;-83
2022/08/31 10:56:00;;;;;;;;;7.00;7.00;;;;;;;;6208926;22;45582;-84
2022/08/31 10:58:25;;;;;;;;;6.67;5.67;;;;;;;;6208974;22;45614;-83
2022/08/31 11:00:55;;;;;;;;;7.75;6.50;;;;;;;;6210898;22;45666;-84
2022/08/31 11:03:23;;;;;;;;;5.00;5.00;;;;;;;;6236381;22;46555;-84
2022/08/31 11:05:54;;;;;;;;;4.33;4.33;;;;;;;;6211480;22;45367;-83
2022/08/31 11:08:48;;;;;;;;;5.67;5.67;;;;;;;;6210205;22;45283;-84
2022/08/31 11:11:29;;;;;;;;;6.00;4.67;;;;;;;;6280859;22;45539;-83
2022/08/31 11:13:59;;;;;;;;;5.33;5.33;;;;;;;;6333162;22;48196;-83
2022/08/31 11:16:33;;;;;;;;;6.00;6.00;;;;;;;;6364897;22;45390;-83
2022/08/31 11:19:17;;;;;;;;;6.67;4.33;;;;;;;;6336584;22;45383;-83
2022/08/31 11:21:54;;;;;;;;;8.00;6.67;;;;;;;;6336695;22;45276;-83
2022/08/31 11:24:28;;;;;;;;;7.00;7.00;;;;;;;;6335269;22;47854;-83
2022/08/31 11:27:03;;;;;;;;;9.00;6.67;;;;;;;;6364848;22;45313;-83
2022/08/31 11:29:40;;;;;;;;;6.00;4.00;;;;;;;;6336474;22;45357;-83
2022/08/31 11:32:25;;;;;;;;;7.00;5.67;;;;;;;;6335369;22;45323;-83
2022/08/31 11:34:52;;;;;;;;;6.00;6.00;;;;;;;;6233695;22;46387;-84
2022/08/31 11:37:36;;;;;;;;;7.00;6.00;;;;;;;;6237036;22;45577;-83
2022/08/31 11:40:02;;;;;;;;;8.00;7.00;;;;;;;;6209849;22;45387;-84
2022/08/31 11:42:31;;;;;;;;;6.33;6.33;;;;;;;;6210516;22;45512;-83
2022/08/31 11:45:02;;;;;;;;;6.67;5.67;;;;;;;;6236226;22;45669;-83
2022/08/31 11:47:27;;;;;;;;;6.67;6.67;;;;;;;;6210909;22;45377;-84
2022/08/31 11:49:54;;;;;;;;;6.00;6.00;;;;;;;;6210455;22;45407;-84
2022/08/31 11:52:19;;;;;;;;;7.67;7.67;;;;;;;;6237135;22;45350;-84
2022/08/31 11:54:47;;;;;;;;;8.00;7.00;;;;;;;;6235516;22;45439;-84
2022/08/31 11:57:16;;;;;;;;;6.00;6.00;;;;;;;;6210635;22;45660;-84
2022/08/31 11:59:43;;;;;;;;;7.67;6.67;;;;;;;;6235864;22;45397;-84
2022/08/31 12:02:20;;;;;;;;;7.00;7.00;;;;;;;;6236771;22;45573;-84
2022/08/31 12:04:46;;;;;;;;;9.00;9.00;;;;;;;;6207750;22;47436;-84
2022/08/31 12:07:14;;;;;;;;;5.67;5.67;;;;;;;;6235678;22;45721;-84
2022/08/31 12:09:42;;;;;;;;;9.33;7.00;;;;;;;;6210830;22;45547;-84
2022/08/31 12:12:16;;;;;;;;;6.00;6.00;;;;;;;;6309544;22;45391;-84
2022/08/31 12:15:04;;;;;;;;;7.33;7.33;;;;;;;;6331627;22;47351;-84
2022/08/31 12:17:50;;;;;;;;;5.00;5.00;;;;;;;;6320948;22;45416;-84
2022/08/31 12:20:18;;;;;;;;;6.00;6.00;;;;;;;;6337406;22;45447;-84
2022/08/31 12:26:10;;;;;;;;;5.67;5.67;;;;;;;;6362790;22;45691;-83
2022/08/31 12:28:41;;;;;;;;;7.33;5.67;;;;;;;;6335932;22;45432;-83
2022/08/31 12:31:11;;;;;;;;;7.00;6.00;;;;;;;;6366523;22;45392;-83
2022/08/31 12:33:46;;;;;;;;;7.00;7.00;;;;;;;;6336134;22;45654;-83
2022/08/31 12:36:17;;;;;;;;;7.00;7.00;;;;;;;;6336183;22;47354;-83
2022/08/31 12:38:43;;;;;;;;;7.67;7.33;;;;;;;;6364269;22;46460;-83
2022/08/31 12:41:09;;;;;;;;;7.33;5.33;;;;;;;;6365125;22;45220;-83
2022/08/31 12:43:37;;;;;;;;;6.00;6.00;;;;;;;;6335679;22;45311;-83
2022/08/31 12:46:05;;;;;;;;;7.00;7.00;;;;;;;;6337464;22;47461;-83
2022/08/31 12:48:40;;;;;;;;;7.00;5.67;;;;;;;;6335347;22;45395;-83
2022/08/31 12:51:11;;;;;;;;;6.33;5.33;;;;;;;;6336901;22;45411;-83
2022/08/31 12:53:55;;;;;;;;;6.00;6.00;;;;;;;;6336588;22;45623;-83
2022/08/31 12:56:23;;;;;;;;;8.00;7.00;;;;;;;;6365416;22;46430;-84
2022/08/31 12:59:10;;;;;;;;;7.33;7.33;;;;;;;;6335545;22;45384;-83
2022/08/31 13:01:40;;;;;;;;;7.00;7.00;;;;;;;;6337117;22;45286;-83
2022/08/31 13:04:05;;;;;;;;;7.00;6.00;;;;;;;;6365345;22;45370;-83
2022/08/31 13:06:35;;;;;;;;;6.00;6.00;;;;;;;;6336220;22;46979;-84
2022/08/31 13:09:00;;;;;;;;;5.67;5.67;;;;;;;;6365340;22;45624;-84
2022/08/31 13:11:28;;;;;;;;;7.00;7.00;;;;;;;;6336824;22;45937;-84
2022/08/31 13:14:05;;;;;;;;;7.00;7.00;;;;;;;;6337187;22;45691;-84
2022/08/31 13:16:30;;;;;;;;;7.00;7.00;;;;;;;;6336959;22;47629;-84
2022/08/31 13:19:02;;;;;;;;;8.33;6.67;;;;;;;;6336181;22;45331;-84
2022/08/31 13:21:27;;;;;;;;;8.00;7.33;;;;;;;;6365403;22;45400;-84
2022/08/31 13:24:05;;;;;;;;;6.33;5.33;;;;;;;;6361380;22;45775;-84
2022/08/31 13:26:32;;;;;;;;;8.00;6.33;;;;;;;;6331589;22;47556;-84
2022/08/31 13:28:59;;;;;;;;;6.67;6.67;;;;;;;;6364170;22;45340;-84
2022/08/31 13:31:27;;;;;;;;;6.67;6.67;;;;;;;;6365591;22;45253;-84
2022/08/31 13:33:55;;;;;;;;;7.00;6.00;;;;;;;;6364042;22;45657;-84
2022/08/31 13:36:32;;;;;;;;;7.33;7.33;;;;;;;;6364496;22;46315;-84
2022/08/31 13:39:03;;;;;;;;;9.67;7.67;;;;;;;;6336703;22;45303;-83
2022/08/31 13:41:36;;;;;;;;;5.33;5.33;;;;;;;;6335200;22;45490;-84
2022/08/31 13:44:04;;;;;;;;;8.00;7.00;;;;;;;;6336282;22;45744;-84
2022/08/31 13:46:31;;;;;;;;;6.33;6.00;;;;;;;;6364715;22;46130;-84
2022/08/31 13:49:00;;;;;;;;;7.00;7.00;;;;;;;;6364387;22;45317;-84
2022/08/31 13:51:26;;;;;;;;;6.00;6.00;;;;;;;;6337250;22;45515;-84
2022/08/31 13:53:51;;;;;;;;;6.67;6.67;;;;;;;;6336423;22;45573;-84
2022/08/31 13:59:16;;;;;;;;;8.00;8.00;;;;;;;;6364543;22;45259;-83
2022/08/31 14:01:46;;;;;;;;;7.00;7.00;;;;;;;;6336841;22;45579;-84
2022/08/31 14:04:37;;;;;;;;;8.33;8.33;;;;;;;;6336191;22;45637;-83
2022/08/31 14:07:03;;;;;;;;;5.67;5.67;;;;;;;;6337026;22;47294;-83
2022/08/31 14:09:28;;;;;;;;;9.00;8.00;;;;;;;;6364807;22;45344;-83
2022/08/31 14:12:03;;;;;;;;;9.00;7.33;;;;;;;;6363780;22;45879;-83
2022/08/31 14:14:38;;;;;;;;;7.00;7.00;;;;;;;;6335983;22;45430;-83
2022/08/31 14:17:04;;;;;;;;;5.33;5.33;;;;;;;;6337017;22;48170;-83
2022/08/31 14:19:30;;;;;;;;;11.00;9.00;;;;;;;;6335532;22;45471;-83
2022/08/31 14:22:11;;;;;;;;;8.67;8.00;;;;;;;;6336365;22;45267;-83
2022/08/31 14:24:37;;;;;;;;;7.67;7.67;;;;;;;;6333998;22;45412;-83
2022/08/31 14:27:02;;;;;;;;;10.33;8.00;;;;;;;;6364805;22;45920;-83
2022/08/31 14:29:28;;;;;;;;;9.33;8.00;;;;;;;;6336129;22;45844;-83
2022/08/31 14:31:53;;;;;;;;;9.67;9.67;;;;;;;;6337065;22;45315;-83
2022/08/31 14:34:19;;;;;;;;;8.33;7.33;;;;;;;;6335195;22;45450;-83
2022/08/31 14:36:53;;;;;;;;;8.00;7.00;;;;;;;;6334851;22;46120;-83
2022/08/31 14:39:20;;;;;;;;;8.67;8.00;;;;;;;;6331741;22;45684;-83
2022/08/31 14:41:45;;;;;;;;;7.00;6.33;;;;;;;;6333542;22;45639;-83
2022/08/31 14:44:12;;;;;;;;;8.67;8.67;;;;;;;;6334327;22;45646;-84
2022/08/31 14:46:38;;;;;;;;;8.33;7.67;;;;;;;;6333013;22;47093;-84
2022/08/31 14:49:05;;;;;;;;;8.33;8.33;;;;;;;;6358889;22;45658;-84
2022/08/31 14:51:31;;;;;;;;;8.33;7.00;;;;;;;;6364711;22;45495;-84
2022/08/31 14:53:57;;;;;;;;;9.67;9.00;;;;;;;;6335308;22;45533;-84
2022/08/31 14:56:29;;;;;;;;;7.00;7.00;;;;;;;;6364672;22;46050;-85
2022/08/31 14:58:55;;;;;;;;;7.00;7.00;;;;;;;;6364479;22;45300;-84
2022/08/31 15:01:21;;;;;;;;;8.00;8.00;;;;;;;;6335151;22;45315;-84
2022/08/31 15:03:47;;;;;;;;;8.00;8.00;;;;;;;;6364750;22;45233;-84
2022/08/31 15:06:12;;;;;;;;;8.33;8.33;;;;;;;;6336800;22;47401;-84